createdAt,value
2022-09-12T00:01:47.177Z,13.24
2022-09-12T00:04:34.193Z,13.28
2022-09-12T00:07:21.140Z,13.25
2022-09-12T00:10:08.093Z,13.21
2022-09-12T00:12:55.019Z,13.18
2022-09-12T00:15:41.853Z,13.13
2022-09-12T00:18:32.260Z,13.10
2022-09-12T00:21:23.678Z,13.06
2022-09-12T00:24:11.080Z,13.03
2022-09-12T00:26:58.025Z,12.88
2022-09-12T00:29:45.082Z,12.95
2022-09-12T00:32:31.997Z,12.93
2022-09-12T00:35:18.980Z,12.90
2022-09-12T00:38:05.820Z,12.86
2022-09-12T00:40:53.066Z,12.84
2022-09-12T00:44:01.912Z,12.81
2022-09-12T00:47:07.523Z,12.72
2022-09-12T00:50:07.373Z,12.77
2022-09-12T00:52:57.919Z,12.75
2022-09-12T00:55:50.700Z,12.76
2022-09-12T00:58:45.862Z,12.74
2022-09-12T01:01:33.102Z,12.70
2022-09-12T01:04:21.944Z,12.68
2022-09-12T01:07:10.794Z,12.65
2022-09-12T01:09:59.864Z,12.63
2022-09-12T01:12:46.961Z,12.61
2022-09-12T01:15:34.072Z,12.58
2022-09-12T01:18:30.441Z,12.54
2022-09-12T01:21:26.521Z,12.50
2022-09-12T01:24:35.417Z,12.44
2022-09-12T01:27:34.559Z,12.41
2022-09-12T01:30:39.268Z,12.34
2022-09-12T01:33:44.448Z,12.34
2022-09-12T01:36:43.452Z,12.31
2022-09-12T01:39:48.621Z,12.26
2022-09-12T01:42:45.922Z,12.23
2022-09-12T01:45:48.721Z,12.16
2022-09-12T01:48:38.937Z,12.14
2022-09-12T01:52:04.296Z,12.09
2022-09-12T01:55:07.690Z,12.03
2022-09-12T01:58:09.417Z,11.98
2022-09-12T02:01:04.979Z,11.94
2022-09-12T02:03:59.491Z,11.86
2022-09-12T02:06:55.630Z,11.85
2022-09-12T02:09:51.978Z,11.81
2022-09-12T02:12:44.857Z,11.76
2022-09-12T02:15:34.715Z,11.63
2022-09-12T02:18:25.597Z,11.67
2022-09-12T02:21:14.352Z,11.63
2022-09-12T02:24:06.760Z,11.58
2022-09-12T02:26:56.945Z,11.56
2022-09-12T02:29:43.936Z,11.51
2022-09-12T02:32:55.133Z,11.47
2022-09-12T02:35:41.920Z,11.43
2022-09-12T02:38:43.295Z,11.38
2022-09-12T02:41:32.200Z,11.34
2022-09-12T02:44:19.260Z,11.30
2022-09-12T02:47:14.147Z,11.26
2022-09-12T02:50:01.249Z,11.24
2022-09-12T02:52:49.515Z,11.14
2022-09-12T02:55:36.648Z,11.11
2022-09-12T02:58:28.724Z,11.08
2022-09-12T03:01:21.820Z,11.02
2022-09-12T03:04:29.948Z,10.97
2022-09-12T03:07:25.695Z,10.92
2022-09-12T03:10:22.875Z,10.84
2022-09-12T03:13:20.885Z,10.79
2022-09-12T03:16:19.881Z,10.74
2022-09-12T03:19:09.228Z,10.70
2022-09-12T03:21:54.695Z,10.65
2022-09-12T03:24:38.314Z,10.60
2022-09-12T03:27:10.579Z,10.56
2022-09-12T03:29:39.008Z,10.53
2022-09-12T03:32:06.021Z,10.49
2022-09-12T03:34:33.519Z,10.47
2022-09-12T03:37:00.524Z,10.45
2022-09-12T03:39:28.282Z,10.42
2022-09-12T03:41:55.439Z,10.41
2022-09-12T03:44:23.371Z,10.38
2022-09-12T03:47:11.459Z,10.37
2022-09-12T03:49:58.431Z,10.35
2022-09-12T03:52:45.399Z,10.33
2022-09-12T03:55:32.298Z,10.31
2022-09-12T03:57:59.349Z,10.28
2022-09-12T04:00:26.389Z,10.26
2022-09-12T04:02:55.635Z,10.22
2022-09-12T04:05:23.424Z,10.19
2022-09-12T04:07:50.441Z,10.16
2022-09-12T04:10:37.504Z,10.14
2022-09-12T04:13:24.454Z,10.10
2022-09-12T04:16:21.451Z,10.04
2022-09-12T04:19:08.286Z,9.95
2022-09-12T04:21:55.322Z,9.89
2022-09-12T04:24:42.348Z,9.83
2022-09-12T04:27:29.279Z,9.77
2022-09-12T04:30:16.408Z,9.65
2022-09-12T04:33:07.915Z,9.64
2022-09-12T04:35:56.014Z,9.60
2022-09-12T04:38:43.008Z,9.55
2022-09-12T04:41:32.057Z,9.43
2022-09-12T04:44:21.944Z,9.46
2022-09-12T04:47:08.839Z,9.41
2022-09-12T04:49:55.828Z,9.14
2022-09-12T04:52:42.641Z,9.34
2022-09-12T04:55:30.036Z,9.30
2022-09-12T04:58:16.941Z,9.28
2022-09-12T05:01:03.971Z,9.25
2022-09-12T05:03:50.833Z,9.13
2022-09-12T05:06:41.096Z,8.89
2022-09-12T05:09:30.680Z,9.19
2022-09-12T05:12:17.844Z,9.17
2022-09-12T05:15:04.842Z,9.05
2022-09-12T05:17:51.999Z,9.03
2022-09-12T05:20:38.903Z,9.09
2022-09-12T05:23:25.847Z,9.11
2022-09-12T05:26:13.924Z,9.12
2022-09-12T05:29:01.426Z,9.11
2022-09-12T05:31:48.932Z,9.12
2022-09-12T05:34:35.720Z,9.12
2022-09-12T05:37:22.712Z,9.12
2022-09-12T05:40:09.594Z,9.15
2022-09-12T05:42:56.634Z,9.10
2022-09-12T05:45:43.751Z,9.11
2022-09-12T05:48:30.719Z,9.20
2022-09-12T05:51:44.843Z,9.23
2022-09-12T05:54:34.386Z,9.27
2022-09-12T05:57:21.304Z,9.14
2022-09-12T06:00:08.186Z,9.33
2022-09-12T06:02:58.829Z,9.38
2022-09-12T06:05:50.480Z,9.42
2022-09-12T06:08:37.881Z,9.43
2022-09-12T06:11:26.291Z,9.49
2022-09-12T06:14:13.864Z,9.54
2022-09-12T06:17:01.105Z,9.58
2022-09-12T06:19:48.135Z,9.62
2022-09-12T06:22:35.169Z,9.66
2022-09-12T06:25:22.142Z,9.68
2022-09-12T06:28:09.011Z,9.75
2022-09-12T06:30:56.159Z,9.79
2022-09-12T06:33:43.131Z,9.83
2022-09-12T06:36:35.261Z,9.87
2022-09-12T06:39:25.126Z,9.94
2022-09-12T06:42:12.902Z,9.98
2022-09-12T06:44:59.862Z,10.03
2022-09-12T06:47:46.798Z,10.09
2022-09-12T06:50:33.791Z,10.15
2022-09-12T06:53:20.654Z,10.23
2022-09-12T06:55:48.244Z,10.29
2022-09-12T06:58:15.064Z,10.35
2022-09-12T07:00:42.248Z,10.40
2022-09-12T07:03:09.736Z,10.41
2022-09-12T07:05:37.440Z,10.53
2022-09-12T07:08:04.470Z,10.60
2022-09-12T07:10:31.944Z,10.64
2022-09-12T07:12:59.163Z,10.72
2022-09-12T07:15:26.981Z,10.78
2022-09-12T07:17:57.434Z,10.85
2022-09-12T07:20:24.391Z,10.92
2022-09-12T07:22:51.295Z,10.99
2022-09-12T07:25:18.222Z,10.98
2022-09-12T07:27:49.284Z,11.11
2022-09-12T07:30:18.242Z,11.18
2022-09-12T07:32:45.180Z,11.26
2022-09-12T07:35:32.721Z,11.32
2022-09-12T07:38:19.575Z,11.42
2022-09-12T07:41:06.630Z,11.49
2022-09-12T07:43:53.436Z,11.60
2022-09-12T07:46:40.775Z,11.67
2022-09-12T07:49:27.702Z,11.76
2022-09-12T07:52:15.038Z,11.77
2022-09-12T07:55:02.035Z,11.92
2022-09-12T07:57:50.466Z,11.74
2022-09-12T08:00:38.533Z,11.97
2022-09-12T08:03:25.663Z,12.18
2022-09-12T08:06:12.521Z,12.26
2022-09-12T08:09:00.038Z,12.36
2022-09-12T08:11:48.793Z,12.45
2022-09-12T08:14:35.786Z,12.55
2022-09-12T08:17:22.663Z,12.63
2022-09-12T08:20:09.760Z,12.70
2022-09-12T08:22:56.591Z,12.79
2022-09-12T08:25:43.564Z,12.84
2022-09-12T08:28:30.395Z,12.94
2022-09-12T08:31:27.478Z,13.01
2022-09-12T08:33:58.180Z,13.09
2022-09-12T08:36:47.492Z,13.14
2022-09-12T08:39:37.426Z,13.23
2022-09-12T08:42:26.364Z,13.11
2022-09-12T08:45:37.373Z,13.38
2022-09-12T08:48:25.967Z,13.40
2022-09-12T08:51:12.871Z,13.57
2022-09-12T08:54:01.226Z,13.64
2022-09-12T08:56:51.872Z,13.72
2022-09-12T08:59:38.863Z,13.81
2022-09-12T09:02:55.308Z,13.88
2022-09-12T09:06:04.753Z,13.97
2022-09-12T09:08:47.949Z,14.04
2022-09-12T09:11:54.135Z,14.12
2022-09-12T09:15:08.537Z,14.18
2022-09-12T09:18:03.105Z,14.26
2022-09-12T09:21:06.688Z,14.27
2022-09-12T09:24:03.030Z,14.43
2022-09-12T09:27:01.096Z,14.52
2022-09-12T09:29:54.344Z,14.61
2022-09-12T09:32:52.789Z,14.71
2022-09-12T09:35:49.656Z,14.81
2022-09-12T09:39:07.756Z,14.90
2022-09-12T09:42:03.831Z,15.01
2022-09-12T09:44:51.156Z,15.09
2022-09-12T09:47:38.708Z,15.21
2022-09-12T09:50:25.752Z,15.29
2022-09-12T09:53:16.855Z,15.40
2022-09-12T09:56:05.820Z,15.49
2022-09-12T09:58:54.401Z,15.57
2022-09-12T10:01:41.504Z,15.65
2022-09-12T10:04:59.222Z,15.68
2022-09-12T10:07:47.067Z,15.76
2022-09-12T10:10:35.480Z,15.81
2022-09-12T10:13:41.892Z,15.76
2022-09-12T10:16:42.490Z,15.92
2022-09-12T10:20:19.855Z,15.98
2022-09-12T10:23:07.811Z,16.10
2022-09-12T10:25:54.699Z,16.16
2022-09-12T10:28:57.140Z,16.25
2022-09-12T10:32:00.924Z,16.33
2022-09-12T10:35:06.429Z,16.41
2022-09-12T10:37:59.966Z,16.43
2022-09-12T10:40:59.166Z,16.49
2022-09-12T10:44:02.007Z,16.54
2022-09-12T10:46:49.472Z,16.53
2022-09-12T10:49:48.484Z,16.64
2022-09-12T10:52:43.589Z,16.70
2022-09-12T10:55:36.740Z,16.75
2022-09-12T10:58:32.860Z,16.81
2022-09-12T11:01:13.313Z,16.85
2022-09-12T11:04:28.208Z,16.87
2022-09-12T11:07:40.093Z,16.91
2022-09-12T11:11:21.533Z,16.99
2022-09-12T11:14:29.606Z,17.09
2022-09-12T11:17:25.434Z,17.19
2022-09-12T11:19:59.303Z,17.27
2022-09-12T11:22:52.989Z,17.32
2022-09-12T11:25:20.217Z,17.36
2022-09-12T11:28:22.798Z,17.38
2022-09-12T11:30:55.909Z,17.41
2022-09-12T11:33:42.951Z,17.43
2022-09-12T11:36:25.001Z,17.44
2022-09-12T11:39:17.393Z,17.46
2022-09-12T11:41:58.085Z,17.48
2022-09-12T11:44:38.716Z,17.47
2022-09-12T11:47:14.683Z,17.46
2022-09-12T11:49:47.971Z,17.45
2022-09-12T11:52:19.925Z,17.45
2022-09-12T11:55:05.423Z,17.44
2022-09-12T11:58:05.273Z,17.44
2022-09-12T12:00:36.453Z,17.45
2022-09-12T12:03:28.442Z,17.42
2022-09-12T12:06:21.978Z,17.36
2022-09-12T12:08:50.690Z,17.41
2022-09-12T12:11:55.344Z,17.39
2022-09-12T12:14:50.911Z,17.25
2022-09-12T12:17:42.268Z,17.33
2022-09-12T12:20:37.397Z,17.32
2022-09-12T12:23:24.604Z,17.32
2022-09-12T12:26:14.788Z,17.31
2022-09-12T12:29:01.749Z,17.33
2022-09-12T12:31:48.583Z,17.37
2022-09-12T12:34:46.712Z,17.41
2022-09-12T12:37:39.804Z,17.40
2022-09-12T12:40:41.997Z,17.38
2022-09-12T12:43:49.742Z,17.31
2022-09-12T12:46:44.775Z,17.30
2022-09-12T12:49:41.099Z,17.32
2022-09-12T12:52:37.761Z,17.26
2022-09-12T12:55:25.145Z,17.24
2022-09-12T12:58:20.339Z,17.19
2022-09-12T13:01:25.269Z,17.21
2022-09-12T13:04:20.660Z,17.19
2022-09-12T13:07:21.856Z,17.15
2022-09-12T13:10:11.929Z,17.13
2022-09-12T13:13:06.932Z,17.10
2022-09-12T13:15:56.956Z,17.07
2022-09-12T13:19:06.243Z,17.00
2022-09-12T13:21:55.393Z,16.91
2022-09-12T13:24:43.487Z,16.56
2022-09-12T13:27:42.225Z,16.77
2022-09-12T13:34:06.368Z,16.66
2022-09-12T13:37:29.769Z,16.60
2022-09-12T13:40:38.145Z,16.57
2022-09-12T13:43:27.698Z,16.52
2022-09-12T13:46:14.718Z,16.44
2022-09-12T13:49:01.676Z,16.29
2022-09-12T13:51:36.393Z,16.38
2022-09-12T13:54:05.402Z,16.36
2022-09-12T13:56:32.427Z,16.33
2022-09-12T13:59:01.671Z,16.32
2022-09-12T14:01:40.541Z,16.29
2022-09-12T14:04:38.181Z,16.28
2022-09-12T14:07:25.641Z,16.25
2022-09-12T14:09:58.340Z,16.19
2022-09-12T14:12:32.465Z,16.25
2022-09-12T14:14:59.577Z,16.18
2022-09-12T14:17:55.296Z,16.19
2022-09-12T14:20:43.940Z,16.20
2022-09-12T14:23:52.891Z,16.18
2022-09-12T14:26:39.995Z,16.16
2022-09-12T14:29:28.248Z,16.14
2022-09-12T14:32:25.003Z,16.13
2022-09-12T14:35:47.372Z,16.10
2022-09-12T14:38:37.151Z,16.07
2022-09-12T14:41:29.075Z,16.01
2022-09-12T14:44:20.501Z,15.79
2022-09-12T14:46:48.782Z,15.78
2022-09-12T14:49:21.402Z,15.86
2022-09-12T14:51:51.430Z,15.82
2022-09-12T14:54:27.588Z,15.79
2022-09-12T14:56:55.861Z,15.74
2022-09-12T14:59:48.630Z,15.69
2022-09-12T15:02:41.607Z,15.65
2022-09-12T15:05:28.594Z,15.62
2022-09-12T15:08:20.570Z,15.58
2022-09-12T15:11:07.860Z,15.59
2022-09-12T15:14:00.462Z,15.57
2022-09-12T15:16:47.711Z,15.56
2022-09-12T15:19:34.879Z,15.54
2022-09-12T15:22:22.155Z,15.53
2022-09-12T15:25:09.084Z,15.37
2022-09-12T15:27:56.204Z,15.47
2022-09-12T15:30:43.209Z,15.42
2022-09-12T15:33:31.400Z,15.39
2022-09-12T15:36:18.378Z,15.35
2022-09-12T15:39:06.107Z,15.31
2022-09-12T15:41:55.264Z,15.30
2022-09-12T15:44:42.301Z,15.29
2022-09-12T15:47:32.805Z,15.28
2022-09-12T15:50:19.847Z,15.27
2022-09-12T15:53:06.784Z,15.26
2022-09-12T15:55:53.653Z,15.26
2022-09-12T15:58:57.220Z,15.24
2022-09-12T16:01:45.103Z,15.22
2022-09-12T16:04:43.672Z,15.21
2022-09-12T16:07:30.881Z,15.19
2022-09-12T16:10:17.660Z,15.16
2022-09-12T16:13:05.265Z,15.16
2022-09-12T16:15:52.129Z,14.87
2022-09-12T16:18:39.260Z,15.13
2022-09-12T16:21:26.439Z,15.11
2022-09-12T16:24:13.530Z,15.07
2022-09-12T16:27:01.312Z,15.03
2022-09-12T16:29:48.487Z,15.01
2022-09-12T16:32:35.260Z,15.00
2022-09-12T16:35:22.316Z,14.98
2022-09-12T16:38:09.245Z,14.96
2022-09-12T16:40:56.188Z,14.91
2022-09-12T16:43:42.953Z,14.90
2022-09-12T16:46:19.165Z,14.87
2022-09-12T16:48:52.463Z,14.86
2022-09-12T16:51:27.903Z,14.86
2022-09-12T16:53:55.871Z,14.84
2022-09-12T16:56:23.472Z,14.84
2022-09-12T16:59:10.476Z,14.83
2022-09-12T17:01:58.036Z,14.82
2022-09-12T17:04:45.028Z,14.77
2022-09-12T17:07:32.332Z,14.76
2022-09-12T17:10:19.283Z,14.74
2022-09-12T17:13:06.082Z,14.73
2022-09-12T17:15:53.075Z,14.65
2022-09-12T17:18:40.132Z,14.50
2022-09-12T17:21:28.917Z,14.69
2022-09-12T17:24:15.958Z,14.68
2022-09-12T17:27:03.395Z,14.68
2022-09-12T17:29:50.404Z,14.67
2022-09-12T17:32:37.367Z,14.66
2022-09-12T17:35:24.480Z,14.64
2022-09-12T17:38:15.438Z,14.63
2022-09-12T17:40:59.441Z,14.62
2022-09-12T17:43:27.096Z,14.61
2022-09-12T17:45:57.493Z,14.60
2022-09-12T17:48:44.746Z,14.50
2022-09-12T17:51:34.452Z,14.60
2022-09-12T17:54:27.050Z,14.58
2022-09-12T17:56:55.597Z,14.59
2022-09-12T17:59:24.779Z,14.58
2022-09-12T18:02:10.305Z,14.57
2022-09-12T18:04:37.481Z,14.57
2022-09-12T18:07:05.037Z,14.57
2022-09-12T18:09:52.053Z,14.56
2022-09-12T18:12:39.007Z,14.49
2022-09-12T18:15:26.600Z,14.55
2022-09-12T18:18:13.575Z,14.55
2022-09-12T18:21:10.168Z,14.55
2022-09-12T18:23:57.643Z,14.54
2022-09-12T18:26:46.183Z,14.54
2022-09-12T18:29:33.696Z,14.55
2022-09-12T18:32:20.813Z,14.55
2022-09-12T18:35:07.812Z,14.56
2022-09-12T18:37:54.824Z,14.56
2022-09-12T18:40:41.810Z,14.56
2022-09-12T18:43:28.780Z,14.56
2022-09-12T18:46:15.842Z,14.54
2022-09-12T18:49:03.569Z,14.55
2022-09-12T18:51:55.722Z,14.55
2022-09-12T18:54:42.708Z,14.55
2022-09-12T18:57:29.875Z,14.55
2022-09-12T19:00:16.825Z,14.55
2022-09-12T19:03:03.696Z,14.56
2022-09-12T19:05:50.711Z,14.52
2022-09-12T19:08:37.608Z,14.57
2022-09-12T19:11:24.963Z,14.58
2022-09-12T19:14:13.112Z,14.59
2022-09-12T19:17:00.108Z,14.59
2022-09-12T19:19:47.019Z,14.60
2022-09-12T19:22:33.980Z,14.60
2022-09-12T19:25:00.900Z,14.61
2022-09-12T19:27:48.131Z,14.62
2022-09-12T19:30:35.057Z,14.62
2022-09-12T19:33:21.940Z,14.63
2022-09-12T19:36:13.737Z,14.62
2022-09-12T19:39:09.123Z,14.64
2022-09-12T19:41:56.380Z,14.65
2022-09-12T19:44:43.377Z,14.65
2022-09-12T19:47:30.344Z,14.67
2022-09-12T19:50:17.565Z,14.67
2022-09-12T19:53:04.637Z,14.68
2022-09-12T19:55:51.611Z,14.69
2022-09-12T19:58:38.455Z,14.69
2022-09-12T20:01:30.597Z,14.70
2022-09-12T20:04:18.634Z,14.61
2022-09-12T20:07:05.505Z,14.70
2022-09-12T20:09:52.349Z,14.69
2022-09-12T20:12:39.363Z,14.70
2022-09-12T20:15:27.384Z,14.60
2022-09-12T20:18:15.757Z,14.73
2022-09-12T20:21:02.613Z,14.73
2022-09-12T20:23:49.585Z,14.73
2022-09-12T20:26:36.960Z,14.73
2022-09-12T20:29:25.641Z,14.73
2022-09-12T20:32:12.608Z,14.74
2022-09-12T20:34:59.526Z,14.73
2022-09-12T20:37:46.373Z,14.74
2022-09-12T20:40:33.185Z,14.74
2022-09-12T20:43:20.022Z,14.76
2022-09-12T20:46:06.899Z,14.76
2022-09-12T20:48:53.775Z,14.76
2022-09-12T20:51:42.084Z,14.77
2022-09-12T20:54:30.120Z,14.78
2022-09-12T20:57:17.196Z,14.64
2022-09-12T21:00:03.987Z,14.74
2022-09-12T21:02:51.465Z,14.78
2022-09-12T21:05:38.403Z,14.78
2022-09-12T21:08:25.707Z,14.58
2022-09-12T21:11:12.560Z,14.72
2022-09-12T21:14:00.176Z,14.79
2022-09-12T21:16:47.197Z,14.81
2022-09-12T21:19:34.276Z,14.79
2022-09-12T21:22:21.060Z,14.82
2022-09-12T21:25:07.983Z,14.82
2022-09-12T21:27:54.787Z,14.80
2022-09-12T21:30:42.104Z,14.81
2022-09-12T21:33:29.628Z,14.81
2022-09-12T21:36:22.042Z,14.77
2022-09-12T21:39:08.871Z,14.82
2022-09-12T21:41:56.009Z,14.82
2022-09-12T21:44:42.991Z,14.82
2022-09-12T21:47:29.973Z,14.83
2022-09-12T21:50:16.792Z,14.81
2022-09-12T21:53:04.649Z,14.83
2022-09-12T21:55:32.308Z,14.80
2022-09-12T21:57:59.323Z,14.84
2022-09-12T22:00:26.444Z,14.86
2022-09-12T22:02:53.799Z,14.86
2022-09-12T22:05:21.373Z,14.87
2022-09-12T22:07:48.491Z,14.88
2022-09-12T22:10:15.544Z,14.88
2022-09-12T22:12:46.175Z,14.84
2022-09-12T22:15:38.747Z,14.79
2022-09-12T22:18:01.283Z,14.89
2022-09-12T22:20:28.758Z,14.80
2022-09-12T22:23:14.073Z,14.91
2022-09-12T22:25:41.227Z,14.92
2022-09-12T22:28:08.077Z,14.88
2022-09-12T22:30:35.467Z,14.92
2022-09-12T22:33:02.670Z,14.93
2022-09-12T22:35:29.589Z,14.95
2022-09-12T22:37:56.535Z,14.95
2022-09-12T22:40:23.679Z,14.94
2022-09-12T22:42:54.050Z,14.97
2022-09-12T22:45:21.045Z,14.97
2022-09-12T22:47:48.005Z,14.98
2022-09-12T22:50:14.915Z,14.98
2022-09-12T22:52:42.366Z,14.96
2022-09-12T22:55:09.954Z,14.94
2022-09-12T22:57:37.455Z,14.94
2022-09-12T23:00:08.592Z,14.94
2022-09-12T23:02:35.588Z,14.91
2022-09-12T23:05:02.737Z,14.83
2022-09-12T23:07:29.739Z,14.96
2022-09-12T23:09:57.033Z,14.96
2022-09-12T23:12:24.330Z,14.95
2022-09-12T23:14:51.403Z,14.95
2022-09-12T23:17:38.316Z,14.96
2022-09-12T23:20:25.636Z,14.88
2022-09-12T23:23:12.724Z,14.97
2022-09-12T23:25:59.762Z,14.87
2022-09-12T23:28:46.729Z,14.97
2022-09-12T23:31:33.837Z,14.98
2022-09-12T23:34:23.745Z,14.97
2022-09-12T23:37:10.547Z,14.97
2022-09-12T23:39:57.621Z,14.97
2022-09-12T23:42:44.736Z,14.99
2022-09-12T23:45:31.827Z,14.99
2022-09-12T23:48:18.875Z,14.99
2022-09-12T23:51:07.721Z,15.00
2022-09-12T23:53:55.047Z,14.98
2022-09-12T23:56:42.097Z,14.99
2022-09-12T23:59:29.012Z,15.00
